<?xml version="1.0" encoding="UTF-8" standalone="no" ?>
<gpx xmlns="http://www.topografix.com/GPX/1/1" xmlns:xsi="http://www.w3.org/2001/XMLSchema-instance" xsi:schemaLocation="http://www.topografix.com/GPX/1/1 http://www.topografix.com/GPX/1/1/gpx.xsd" version="1.1" creator="VisuGPX - https://www.visugpx.com">
  <metadata>
    <name>Boucle poujol sur orb</name>
    <desc><![CDATA[
Descente engagée pour public averti.

du vtt, du vrai!  monté par bitume et chemin carrossable pour accéder à une énorme descente
]]></desc>
  </metadata>
  <trk>
    <name><![CDATA[RANDO POUJOL SUR ORB]]></name>
    <trkseg>
      <trkpt lat="43.5789" lon="3.06205">
        <ele>170.2906494</ele>
        <time>2011-12-04T08:10:44Z</time>
      </trkpt>
      <trkpt lat="43.57892" lon="3.06205">
        <ele>173.1746826</ele>
        <time>2011-12-04T08:15:14Z</time>
      </trkpt>
      <trkpt lat="43.57881" lon="3.06118">
        <ele>173.1746826</ele>
        <time>2011-12-04T08:15:31Z</time>
      </trkpt>
      <trkpt lat="43.5786" lon="3.05925">
        <ele>174.1358643</ele>
        <time>2011-12-04T08:16:07Z</time>
      </trkpt>
      <trkpt lat="43.57872" lon="3.05822">
        <ele>174.6165771</ele>
        <time>2011-12-04T08:16:29Z</time>
      </trkpt>
      <trkpt lat="43.57868" lon="3.05772">
        <ele>175.09729</ele>
        <time>2011-12-04T08:16:39Z</time>
      </trkpt>
      <trkpt lat="43.57881" lon="3.05762">
        <ele>175.09729</ele>
        <time>2011-12-04T08:16:43Z</time>
      </trkpt>
      <trkpt lat="43.57943" lon="3.057">
        <ele>178.942627</ele>
        <time>2011-12-04T08:17:07Z</time>
      </trkpt>
      <trkpt lat="43.57995" lon="3.05651">
        <ele>182.3071289</ele>
        <time>2011-12-04T08:17:28Z</time>
      </trkpt>
      <trkpt lat="43.58043" lon="3.05604">
        <ele>185.6717529</ele>
        <time>2011-12-04T08:17:49Z</time>
      </trkpt>
      <trkpt lat="43.58119" lon="3.05523">
        <ele>191.9202881</ele>
        <time>2011-12-04T08:18:28Z</time>
      </trkpt>
      <trkpt lat="43.58168" lon="3.05448">
        <ele>196.7269287</ele>
        <time>2011-12-04T08:18:59Z</time>
      </trkpt>
      <trkpt lat="43.58225" lon="3.05364">
        <ele>202.494873</ele>
        <time>2011-12-04T08:19:34Z</time>
      </trkpt>
      <trkpt lat="43.58282" lon="3.0528">
        <ele>208.2628174</ele>
        <time>2011-12-04T08:20:11Z</time>
      </trkpt>
      <trkpt lat="43.58317" lon="3.05247">
        <ele>211.1467285</ele>
        <time>2011-12-04T08:20:29Z</time>
      </trkpt>
      <trkpt lat="43.58397" lon="3.05232">
        <ele>217.3953857</ele>
        <time>2011-12-04T08:21:04Z</time>
      </trkpt>
      <trkpt lat="43.58462" lon="3.05201">
        <ele>222.2017822</ele>
        <time>2011-12-04T08:21:37Z</time>
      </trkpt>
      <trkpt lat="43.58489" lon="3.05127">
        <ele>227.4891357</ele>
        <time>2011-12-04T08:22:03Z</time>
      </trkpt>
      <trkpt lat="43.5849" lon="3.05126">
        <ele>227.4891357</ele>
        <time>2011-12-04T08:22:04Z</time>
      </trkpt>
      <trkpt lat="43.58512" lon="3.05087">
        <ele>230.3730469</ele>
        <time>2011-12-04T08:22:20Z</time>
      </trkpt>
      <trkpt lat="43.58519" lon="3.05076">
        <ele>231.3343506</ele>
        <time>2011-12-04T08:22:27Z</time>
      </trkpt>
      <trkpt lat="43.58567" lon="3.05053">
        <ele>235.1796875</ele>
        <time>2011-12-04T08:22:47Z</time>
      </trkpt>
      <trkpt lat="43.58599" lon="3.05017">
        <ele>239.9862061</ele>
        <time>2011-12-04T08:23:13Z</time>
      </trkpt>
      <trkpt lat="43.58595" lon="3.05019">
        <ele>239.9862061</ele>
        <time>2011-12-04T08:23:15Z</time>
      </trkpt>
      <trkpt lat="43.58567" lon="3.05027">
        <ele>243.3508301</ele>
        <time>2011-12-04T08:23:30Z</time>
      </trkpt>
      <trkpt lat="43.58531" lon="3.05019">
        <ele>246.7154541</ele>
        <time>2011-12-04T08:23:51Z</time>
      </trkpt>
      <trkpt lat="43.5852" lon="3.05028">
        <ele>247.6767578</ele>
        <time>2011-12-04T08:23:58Z</time>
      </trkpt>
      <trkpt lat="43.58454" lon="3.05074">
        <ele>252.4833984</ele>
        <time>2011-12-04T08:24:29Z</time>
      </trkpt>
      <trkpt lat="43.5845" lon="3.05076">
        <ele>252.9639893</ele>
        <time>2011-12-04T08:24:31Z</time>
      </trkpt>
      <trkpt lat="43.58411" lon="3.05027">
        <ele>258.7319336</ele>
        <time>2011-12-04T08:25:00Z</time>
      </trkpt>
      <trkpt lat="43.5842" lon="3.04991">
        <ele>262.0965576</ele>
        <time>2011-12-04T08:25:14Z</time>
      </trkpt>
      <trkpt lat="43.58479" lon="3.04983">
        <ele>266.9031982</ele>
        <time>2011-12-04T08:25:42Z</time>
      </trkpt>
      <trkpt lat="43.58527" lon="3.04943">
        <ele>271.7097168</ele>
        <time>2011-12-04T08:26:09Z</time>
      </trkpt>
      <trkpt lat="43.58564" lon="3.04942">
        <ele>275.5550537</ele>
        <time>2011-12-04T08:26:26Z</time>
      </trkpt>
      <trkpt lat="43.58566" lon="3.04941">
        <ele>275.5550537</ele>
        <time>2011-12-04T08:26:27Z</time>
      </trkpt>
      <trkpt lat="43.58625" lon="3.04882">
        <ele>281.322998</ele>
        <time>2011-12-04T08:27:03Z</time>
      </trkpt>
      <trkpt lat="43.58626" lon="3.0488">
        <ele>281.322998</ele>
        <time>2011-12-04T08:27:04Z</time>
      </trkpt>
      <trkpt lat="43.58683" lon="3.04879">
        <ele>285.1682129</ele>
        <time>2011-12-04T08:27:30Z</time>
      </trkpt>
      <trkpt lat="43.58717" lon="3.04869">
        <ele>289.0135498</ele>
        <time>2011-12-04T08:27:47Z</time>
      </trkpt>
      <trkpt lat="43.58771" lon="3.04828">
        <ele>293.8200684</ele>
        <time>2011-12-04T08:28:18Z</time>
      </trkpt>
      <trkpt lat="43.58812" lon="3.04768">
        <ele>298.1461182</ele>
        <time>2011-12-04T08:28:46Z</time>
      </trkpt>
      <trkpt lat="43.58855" lon="3.04721">
        <ele>301.991333</ele>
        <time>2011-12-04T08:29:10Z</time>
      </trkpt>
      <trkpt lat="43.58882" lon="3.04685">
        <ele>304.3946533</ele>
        <time>2011-12-04T08:29:26Z</time>
      </trkpt>
      <trkpt lat="43.58923" lon="3.04643">
        <ele>307.7592773</ele>
        <time>2011-12-04T08:29:47Z</time>
      </trkpt>
      <trkpt lat="43.58965" lon="3.04609">
        <ele>311.6044922</ele>
        <time>2011-12-04T08:30:09Z</time>
      </trkpt>
      <trkpt lat="43.58999" lon="3.04589">
        <ele>314.0078125</ele>
        <time>2011-12-04T08:30:26Z</time>
      </trkpt>
      <trkpt lat="43.59047" lon="3.04586">
        <ele>318.8143311</ele>
        <time>2011-12-04T08:30:50Z</time>
      </trkpt>
      <trkpt lat="43.59108" lon="3.04583">
        <ele>323.6209717</ele>
        <time>2011-12-04T08:31:17Z</time>
      </trkpt>
      <trkpt lat="43.59111" lon="3.0458">
        <ele>323.6209717</ele>
        <time>2011-12-04T08:31:19Z</time>
      </trkpt>
      <trkpt lat="43.5907" lon="3.04564">
        <ele>328.9083252</ele>
        <time>2011-12-04T08:31:47Z</time>
      </trkpt>
      <trkpt lat="43.59022" lon="3.04536">
        <ele>332.75354</ele>
        <time>2011-12-04T08:32:11Z</time>
      </trkpt>
      <trkpt lat="43.58982" lon="3.0454">
        <ele>336.1181641</ele>
        <time>2011-12-04T08:32:33Z</time>
      </trkpt>
      <trkpt lat="43.5894" lon="3.04562">
        <ele>339.482666</ele>
        <time>2011-12-04T08:32:52Z</time>
      </trkpt>
      <trkpt lat="43.58882" lon="3.04587">
        <ele>343.8085938</ele>
        <time>2011-12-04T08:33:18Z</time>
      </trkpt>
      <trkpt lat="43.58854" lon="3.04581">
        <ele>346.2120361</ele>
        <time>2011-12-04T08:33:34Z</time>
      </trkpt>
      <trkpt lat="43.58914" lon="3.04539">
        <ele>352.4605713</ele>
        <time>2011-12-04T08:34:02Z</time>
      </trkpt>
      <trkpt lat="43.58964" lon="3.04475">
        <ele>357.2670898</ele>
        <time>2011-12-04T08:34:27Z</time>
      </trkpt>
      <trkpt lat="43.58997" lon="3.04442">
        <ele>360.6317139</ele>
        <time>2011-12-04T08:34:41Z</time>
      </trkpt>
      <trkpt lat="43.59047" lon="3.04434">
        <ele>364.4769287</ele>
        <time>2011-12-04T08:34:59Z</time>
      </trkpt>
      <trkpt lat="43.59107" lon="3.04436">
        <ele>369.2836914</ele>
        <time>2011-12-04T08:35:26Z</time>
      </trkpt>
      <trkpt lat="43.59152" lon="3.04412">
        <ele>373.6094971</ele>
        <time>2011-12-04T08:35:50Z</time>
      </trkpt>
      <trkpt lat="43.59195" lon="3.04388">
        <ele>376.9742432</ele>
        <time>2011-12-04T08:36:11Z</time>
      </trkpt>
      <trkpt lat="43.59176" lon="3.04345">
        <ele>379.8580322</ele>
        <time>2011-12-04T08:36:33Z</time>
      </trkpt>
      <trkpt lat="43.59224" lon="3.04254">
        <ele>384.6647949</ele>
        <time>2011-12-04T08:37:06Z</time>
      </trkpt>
      <trkpt lat="43.59275" lon="3.04175">
        <ele>388.9906006</ele>
        <time>2011-12-04T08:37:35Z</time>
      </trkpt>
      <trkpt lat="43.59277" lon="3.04156">
        <ele>389.4711914</ele>
        <time>2011-12-04T08:37:41Z</time>
      </trkpt>
      <trkpt lat="43.59279" lon="3.04147">
        <ele>389.9519043</ele>
        <time>2011-12-04T08:37:44Z</time>
      </trkpt>
      <trkpt lat="43.59295" lon="3.04174">
        <ele>395.7198486</ele>
        <time>2011-12-04T08:38:11Z</time>
      </trkpt>
      <trkpt lat="43.593" lon="3.04192">
        <ele>397.1617432</ele>
        <time>2011-12-04T08:38:25Z</time>
      </trkpt>
      <trkpt lat="43.59283" lon="3.04229">
        <ele>399.5650635</ele>
        <time>2011-12-04T08:38:45Z</time>
      </trkpt>
      <trkpt lat="43.59268" lon="3.04289">
        <ele>402.9296875</ele>
        <time>2011-12-04T08:39:05Z</time>
      </trkpt>
      <trkpt lat="43.59305" lon="3.04352">
        <ele>408.217041</ele>
        <time>2011-12-04T08:39:35Z</time>
      </trkpt>
      <trkpt lat="43.59358" lon="3.04379">
        <ele>413.0235596</ele>
        <time>2011-12-04T08:40:02Z</time>
      </trkpt>
      <trkpt lat="43.5939" lon="3.04387">
        <ele>415.9074707</ele>
        <time>2011-12-04T08:40:17Z</time>
      </trkpt>
      <trkpt lat="43.59415" lon="3.04393">
        <ele>417.8302002</ele>
        <time>2011-12-04T08:40:29Z</time>
      </trkpt>
      <trkpt lat="43.59449" lon="3.04401">
        <ele>420.7141113</ele>
        <time>2011-12-04T08:40:43Z</time>
      </trkpt>
      <trkpt lat="43.59501" lon="3.04437">
        <ele>425.0401611</ele>
        <time>2011-12-04T08:41:07Z</time>
      </trkpt>
      <trkpt lat="43.59462" lon="3.04382">
        <ele>430.3272705</ele>
        <time>2011-12-04T08:41:33Z</time>
      </trkpt>
      <trkpt lat="43.59422" lon="3.04335">
        <ele>434.6533203</ele>
        <time>2011-12-04T08:41:56Z</time>
      </trkpt>
      <trkpt lat="43.59401" lon="3.04255">
        <ele>438.979126</ele>
        <time>2011-12-04T08:42:20Z</time>
      </trkpt>
      <trkpt lat="43.59441" lon="3.04307">
        <ele>444.7470703</ele>
        <time>2011-12-04T08:42:48Z</time>
      </trkpt>
      <trkpt lat="43.59478" lon="3.04329">
        <ele>447.1502686</ele>
        <time>2011-12-04T08:43:05Z</time>
      </trkpt>
      <trkpt lat="43.59511" lon="3.04349">
        <ele>450.5150146</ele>
        <time>2011-12-04T08:43:20Z</time>
      </trkpt>
      <trkpt lat="43.59562" lon="3.04366">
        <ele>455.8022461</ele>
        <time>2011-12-04T08:43:48Z</time>
      </trkpt>
      <trkpt lat="43.59625" lon="3.04402">
        <ele>461.5701904</ele>
        <time>2011-12-04T08:44:16Z</time>
      </trkpt>
      <trkpt lat="43.59656" lon="3.0443">
        <ele>464.9348145</ele>
        <time>2011-12-04T08:44:34Z</time>
      </trkpt>
      <trkpt lat="43.59718" lon="3.0445">
        <ele>470.2219238</ele>
        <time>2011-12-04T08:45:06Z</time>
      </trkpt>
      <trkpt lat="43.59749" lon="3.04446">
        <ele>473.5866699</ele>
        <time>2011-12-04T08:45:22Z</time>
      </trkpt>
      <trkpt lat="43.59832" lon="3.04433">
        <ele>479.835083</ele>
        <time>2011-12-04T08:45:59Z</time>
      </trkpt>
      <trkpt lat="43.5992" lon="3.04426">
        <ele>486.0837402</ele>
        <time>2011-12-04T08:46:37Z</time>
      </trkpt>
      <trkpt lat="43.59992" lon="3.04447">
        <ele>490.40979</ele>
        <time>2011-12-04T08:47:07Z</time>
      </trkpt>
      <trkpt lat="43.60081" lon="3.04485">
        <ele>494.2550049</ele>
        <time>2011-12-04T08:47:39Z</time>
      </trkpt>
      <trkpt lat="43.6013" lon="3.045">
        <ele>499.0615234</ele>
        <time>2011-12-04T08:47:59Z</time>
      </trkpt>
      <trkpt lat="43.60191" lon="3.0452">
        <ele>502.9067383</ele>
        <time>2011-12-04T08:48:24Z</time>
      </trkpt>
      <trkpt lat="43.60254" lon="3.04576">
        <ele>508.1940918</ele>
        <time>2011-12-04T08:48:55Z</time>
      </trkpt>
      <trkpt lat="43.60277" lon="3.04621">
        <ele>509.6361084</ele>
        <time>2011-12-04T08:49:25Z</time>
      </trkpt>
      <trkpt lat="43.60273" lon="3.04623">
        <ele>508.6746826</ele>
        <time>2011-12-04T08:51:11Z</time>
      </trkpt>
      <trkpt lat="43.6026" lon="3.04644">
        <ele>503.3874512</ele>
        <time>2011-12-04T08:51:15Z</time>
      </trkpt>
      <trkpt lat="43.6026" lon="3.04649">
        <ele>503.3874512</ele>
        <time>2011-12-04T08:51:16Z</time>
      </trkpt>
      <trkpt lat="43.60254" lon="3.04659">
        <ele>500.0229492</ele>
        <time>2011-12-04T08:51:19Z</time>
      </trkpt>
      <trkpt lat="43.60268" lon="3.04697">
        <ele>496.1777344</ele>
        <time>2011-12-04T08:51:27Z</time>
      </trkpt>
      <trkpt lat="43.60299" lon="3.0472">
        <ele>491.3709717</ele>
        <time>2011-12-04T08:51:39Z</time>
      </trkpt>
      <trkpt lat="43.6029" lon="3.04728">
        <ele>488.0064697</ele>
        <time>2011-12-04T08:51:43Z</time>
      </trkpt>
      <trkpt lat="43.60285" lon="3.04733">
        <ele>484.1611328</ele>
        <time>2011-12-04T08:51:45Z</time>
      </trkpt>
      <trkpt lat="43.60285" lon="3.04734">
        <ele>484.1611328</ele>
        <time>2011-12-04T08:51:46Z</time>
      </trkpt>
      <trkpt lat="43.60295" lon="3.04753">
        <ele>480.315918</ele>
        <time>2011-12-04T08:51:53Z</time>
      </trkpt>
      <trkpt lat="43.60314" lon="3.04774">
        <ele>475.9898682</ele>
        <time>2011-12-04T08:52:00Z</time>
      </trkpt>
      <trkpt lat="43.6033" lon="3.04796">
        <ele>471.1833496</ele>
        <time>2011-12-04T08:52:08Z</time>
      </trkpt>
      <trkpt lat="43.60354" lon="3.04808">
        <ele>467.3381348</ele>
        <time>2011-12-04T08:52:16Z</time>
      </trkpt>
      <trkpt lat="43.60365" lon="3.04824">
        <ele>463.9733887</ele>
        <time>2011-12-04T08:52:21Z</time>
      </trkpt>
      <trkpt lat="43.60368" lon="3.04829">
        <ele>463.012085</ele>
        <time>2011-12-04T08:52:23Z</time>
      </trkpt>
      <trkpt lat="43.60388" lon="3.04842">
        <ele>459.1668701</ele>
        <time>2011-12-04T08:52:30Z</time>
      </trkpt>
      <trkpt lat="43.60403" lon="3.04856">
        <ele>454.8408203</ele>
        <time>2011-12-04T08:52:36Z</time>
      </trkpt>
      <trkpt lat="43.60405" lon="3.04859">
        <ele>454.8408203</ele>
        <time>2011-12-04T08:52:37Z</time>
      </trkpt>
      <trkpt lat="43.6042" lon="3.04872">
        <ele>450.9956055</ele>
        <time>2011-12-04T08:52:43Z</time>
      </trkpt>
      <trkpt lat="43.60421" lon="3.04873">
        <ele>450.9956055</ele>
        <time>2011-12-04T08:52:44Z</time>
      </trkpt>
      <trkpt lat="43.60435" lon="3.04896">
        <ele>448.1118164</ele>
        <time>2011-12-04T08:54:19Z</time>
      </trkpt>
      <trkpt lat="43.6045" lon="3.0493">
        <ele>445.708374</ele>
        <time>2011-12-04T08:54:26Z</time>
      </trkpt>
      <trkpt lat="43.60464" lon="3.04949">
        <ele>441.3824463</ele>
        <time>2011-12-04T08:54:34Z</time>
      </trkpt>
      <trkpt lat="43.60466" lon="3.0495">
        <ele>441.3824463</ele>
        <time>2011-12-04T08:54:35Z</time>
      </trkpt>
      <trkpt lat="43.60475" lon="3.04964">
        <ele>437.5371094</ele>
        <time>2011-12-04T08:54:44Z</time>
      </trkpt>
      <trkpt lat="43.60485" lon="3.04976">
        <ele>434.1726074</ele>
        <time>2011-12-04T08:54:52Z</time>
      </trkpt>
      <trkpt lat="43.60488" lon="3.04978">
        <ele>434.1726074</ele>
        <time>2011-12-04T08:54:53Z</time>
      </trkpt>
      <trkpt lat="43.60489" lon="3.04987">
        <ele>431.2885742</ele>
        <time>2011-12-04T08:55:00Z</time>
      </trkpt>
      <trkpt lat="43.60434" lon="3.05">
        <ele>436.0952148</ele>
        <time>2011-12-04T08:55:25Z</time>
      </trkpt>
      <trkpt lat="43.60366" lon="3.05049">
        <ele>437.0565186</ele>
        <time>2011-12-04T08:55:52Z</time>
      </trkpt>
      <trkpt lat="43.60298" lon="3.05048">
        <ele>433.6918945</ele>
        <time>2011-12-04T08:56:11Z</time>
      </trkpt>
      <trkpt lat="43.60267" lon="3.05054">
        <ele>434.6533203</ele>
        <time>2011-12-04T08:56:19Z</time>
      </trkpt>
      <trkpt lat="43.60159" lon="3.05065">
        <ele>434.1726074</ele>
        <time>2011-12-04T08:56:45Z</time>
      </trkpt>
      <trkpt lat="43.60135" lon="3.05062">
        <ele>435.614502</ele>
        <time>2011-12-04T08:57:03Z</time>
      </trkpt>
      <trkpt lat="43.60112" lon="3.05065">
        <ele>437.5371094</ele>
        <time>2011-12-04T08:57:15Z</time>
      </trkpt>
      <trkpt lat="43.60075" lon="3.05075">
        <ele>441.3824463</ele>
        <time>2011-12-04T08:57:36Z</time>
      </trkpt>
      <trkpt lat="43.60053" lon="3.05084">
        <ele>442.8244629</ele>
        <time>2011-12-04T08:57:48Z</time>
      </trkpt>
      <trkpt lat="43.60034" lon="3.05086">
        <ele>443.7857666</ele>
        <time>2011-12-04T08:58:27Z</time>
      </trkpt>
      <trkpt lat="43.60016" lon="3.05099">
        <ele>443.7857666</ele>
        <time>2011-12-04T08:59:24Z</time>
      </trkpt>
      <trkpt lat="43.59944" lon="3.05135">
        <ele>445.708374</ele>
        <time>2011-12-04T08:59:48Z</time>
      </trkpt>
      <trkpt lat="43.59889" lon="3.05162">
        <ele>445.2276611</ele>
        <time>2011-12-04T08:59:58Z</time>
      </trkpt>
      <trkpt lat="43.59881" lon="3.05271">
        <ele>444.2664795</ele>
        <time>2011-12-04T09:00:14Z</time>
      </trkpt>
      <trkpt lat="43.59903" lon="3.05306">
        <ele>443.3050537</ele>
        <time>2011-12-04T09:00:22Z</time>
      </trkpt>
      <trkpt lat="43.59895" lon="3.05389">
        <ele>445.708374</ele>
        <time>2011-12-04T09:00:47Z</time>
      </trkpt>
      <trkpt lat="43.59896" lon="3.0539">
        <ele>445.708374</ele>
        <time>2011-12-04T09:01:29Z</time>
      </trkpt>
      <trkpt lat="43.59898" lon="3.05394">
        <ele>450.5150146</ele>
        <time>2011-12-04T09:06:24Z</time>
      </trkpt>
      <trkpt lat="43.59897" lon="3.05408">
        <ele>452.9182129</ele>
        <time>2011-12-04T09:07:39Z</time>
      </trkpt>
      <trkpt lat="43.59898" lon="3.05407">
        <ele>452.9182129</ele>
        <time>2011-12-04T09:07:40Z</time>
      </trkpt>
      <trkpt lat="43.59909" lon="3.05399">
        <ele>454.8408203</ele>
        <time>2011-12-04T09:08:05Z</time>
      </trkpt>
      <trkpt lat="43.59915" lon="3.05394">
        <ele>455.3215332</ele>
        <time>2011-12-04T09:08:11Z</time>
      </trkpt>
      <trkpt lat="43.59922" lon="3.05422">
        <ele>461.0894775</ele>
        <time>2011-12-04T09:08:30Z</time>
      </trkpt>
      <trkpt lat="43.5993" lon="3.05498">
        <ele>465.4155273</ele>
        <time>2011-12-04T09:08:52Z</time>
      </trkpt>
      <trkpt lat="43.59932" lon="3.05512">
        <ele>465.8961182</ele>
        <time>2011-12-04T09:08:56Z</time>
      </trkpt>
      <trkpt lat="43.59911" lon="3.05564">
        <ele>470.7026367</ele>
        <time>2011-12-04T09:09:20Z</time>
      </trkpt>
      <trkpt lat="43.59894" lon="3.05607">
        <ele>474.0672607</ele>
        <time>2011-12-04T09:09:37Z</time>
      </trkpt>
      <trkpt lat="43.59864" lon="3.05659">
        <ele>477.4318848</ele>
        <time>2011-12-04T09:10:00Z</time>
      </trkpt>
      <trkpt lat="43.59847" lon="3.05735">
        <ele>481.7578125</ele>
        <time>2011-12-04T09:10:26Z</time>
      </trkpt>
      <trkpt lat="43.5985" lon="3.0578">
        <ele>485.1224365</ele>
        <time>2011-12-04T09:10:39Z</time>
      </trkpt>
      <trkpt lat="43.59852" lon="3.05814">
        <ele>487.0450439</ele>
        <time>2011-12-04T09:10:52Z</time>
      </trkpt>
      <trkpt lat="43.5987" lon="3.05807">
        <ele>493.2935791</ele>
        <time>2011-12-04T09:11:21Z</time>
      </trkpt>
      <trkpt lat="43.59882" lon="3.0577">
        <ele>496.6583252</ele>
        <time>2011-12-04T09:11:40Z</time>
      </trkpt>
      <trkpt lat="43.59916" lon="3.0573">
        <ele>501.4648438</ele>
        <time>2011-12-04T09:12:07Z</time>
      </trkpt>
      <trkpt lat="43.599" lon="3.05764">
        <ele>504.348877</ele>
        <time>2011-12-04T09:12:29Z</time>
      </trkpt>
      <trkpt lat="43.5989" lon="3.05846">
        <ele>505.3101807</ele>
        <time>2011-12-04T09:12:48Z</time>
      </trkpt>
      <trkpt lat="43.59916" lon="3.05824">
        <ele>509.1553955</ele>
        <time>2011-12-04T09:13:07Z</time>
      </trkpt>
      <trkpt lat="43.59934" lon="3.05793">
        <ele>512.5200195</ele>
        <time>2011-12-04T09:13:23Z</time>
      </trkpt>
      <trkpt lat="43.59987" lon="3.05746">
        <ele>517.807251</ele>
        <time>2011-12-04T09:13:59Z</time>
      </trkpt>
      <trkpt lat="43.60013" lon="3.0572">
        <ele>523.0946045</ele>
        <time>2011-12-04T09:14:22Z</time>
      </trkpt>
      <trkpt lat="43.60029" lon="3.05701">
        <ele>526.4591064</ele>
        <time>2011-12-04T09:14:38Z</time>
      </trkpt>
      <trkpt lat="43.60062" lon="3.05678">
        <ele>531.2657471</ele>
        <time>2011-12-04T09:15:06Z</time>
      </trkpt>
      <trkpt lat="43.60077" lon="3.05663">
        <ele>534.6303711</ele>
        <time>2011-12-04T09:15:21Z</time>
      </trkpt>
      <trkpt lat="43.60103" lon="3.05621">
        <ele>538.9562988</ele>
        <time>2011-12-04T09:15:49Z</time>
      </trkpt>
      <trkpt lat="43.60139" lon="3.05564">
        <ele>544.2436523</ele>
        <time>2011-12-04T09:16:21Z</time>
      </trkpt>
      <trkpt lat="43.60196" lon="3.05514">
        <ele>549.5307617</ele>
        <time>2011-12-04T09:16:56Z</time>
      </trkpt>
      <trkpt lat="43.60246" lon="3.05471">
        <ele>554.8178711</ele>
        <time>2011-12-04T09:17:26Z</time>
      </trkpt>
      <trkpt lat="43.60254" lon="3.05465">
        <ele>556.2600098</ele>
        <time>2011-12-04T09:17:31Z</time>
      </trkpt>
      <trkpt lat="43.60256" lon="3.05461">
        <ele>555.7792969</ele>
        <time>2011-12-04T09:17:34Z</time>
      </trkpt>
      <trkpt lat="43.60303" lon="3.05441">
        <ele>559.6247559</ele>
        <time>2011-12-04T09:18:01Z</time>
      </trkpt>
      <trkpt lat="43.60379" lon="3.05455">
        <ele>562.5085449</ele>
        <time>2011-12-04T09:18:28Z</time>
      </trkpt>
      <trkpt lat="43.6044" lon="3.05485">
        <ele>565.873291</ele>
        <time>2011-12-04T09:18:55Z</time>
      </trkpt>
      <trkpt lat="43.60492" lon="3.05496">
        <ele>570.6796875</ele>
        <time>2011-12-04T09:19:17Z</time>
      </trkpt>
      <trkpt lat="43.60529" lon="3.05505">
        <ele>575.4863281</ele>
        <time>2011-12-04T09:19:41Z</time>
      </trkpt>
      <trkpt lat="43.60544" lon="3.05504">
        <ele>576.9284668</ele>
        <time>2011-12-04T09:19:52Z</time>
      </trkpt>
      <trkpt lat="43.60565" lon="3.05474">
        <ele>578.3703613</ele>
        <time>2011-12-04T09:20:06Z</time>
      </trkpt>
      <trkpt lat="43.60623" lon="3.05407">
        <ele>581.7348633</ele>
        <time>2011-12-04T09:20:31Z</time>
      </trkpt>
      <trkpt lat="43.60637" lon="3.05388">
        <ele>585.0996094</ele>
        <time>2011-12-04T09:20:56Z</time>
      </trkpt>
      <trkpt lat="43.60636" lon="3.05388">
        <ele>585.0996094</ele>
        <time>2011-12-04T09:21:03Z</time>
      </trkpt>
      <trkpt lat="43.60612" lon="3.05418">
        <ele>587.0219727</ele>
        <time>2011-12-04T09:21:18Z</time>
      </trkpt>
      <trkpt lat="43.60577" lon="3.05471">
        <ele>589.4255371</ele>
        <time>2011-12-04T09:21:40Z</time>
      </trkpt>
      <trkpt lat="43.6056" lon="3.05511">
        <ele>592.7902832</ele>
        <time>2011-12-04T09:21:57Z</time>
      </trkpt>
      <trkpt lat="43.60544" lon="3.05545">
        <ele>596.1547852</ele>
        <time>2011-12-04T09:22:15Z</time>
      </trkpt>
      <trkpt lat="43.60539" lon="3.05558">
        <ele>597.1159668</ele>
        <time>2011-12-04T09:22:21Z</time>
      </trkpt>
      <trkpt lat="43.60508" lon="3.05613">
        <ele>598.5578613</ele>
        <time>2011-12-04T09:22:44Z</time>
      </trkpt>
      <trkpt lat="43.60453" lon="3.05675">
        <ele>602.8837891</ele>
        <time>2011-12-04T09:23:14Z</time>
      </trkpt>
      <trkpt lat="43.60446" lon="3.05686">
        <ele>606.2485352</ele>
        <time>2011-12-04T09:23:26Z</time>
      </trkpt>
      <trkpt lat="43.60428" lon="3.05692">
        <ele>608.6518555</ele>
        <time>2011-12-04T09:23:41Z</time>
      </trkpt>
      <trkpt lat="43.604" lon="3.05699">
        <ele>612.4970703</ele>
        <time>2011-12-04T09:23:58Z</time>
      </trkpt>
      <trkpt lat="43.60368" lon="3.05712">
        <ele>614.4196777</ele>
        <time>2011-12-04T09:24:30Z</time>
      </trkpt>
      <trkpt lat="43.60354" lon="3.05721">
        <ele>613.9389648</ele>
        <time>2011-12-04T09:25:23Z</time>
      </trkpt>
      <trkpt lat="43.6034" lon="3.05742">
        <ele>610.09375</ele>
        <time>2011-12-04T09:25:32Z</time>
      </trkpt>
      <trkpt lat="43.60322" lon="3.05751">
        <ele>607.6906738</ele>
        <time>2011-12-04T09:25:44Z</time>
      </trkpt>
      <trkpt lat="43.60303" lon="3.05765">
        <ele>605.7680664</ele>
        <time>2011-12-04T09:25:53Z</time>
      </trkpt>
      <trkpt lat="43.60299" lon="3.05772">
        <ele>602.4030762</ele>
        <time>2011-12-04T09:25:56Z</time>
      </trkpt>
      <trkpt lat="43.60257" lon="3.05768">
        <ele>598.0773926</ele>
        <time>2011-12-04T09:26:20Z</time>
      </trkpt>
      <trkpt lat="43.60253" lon="3.05777">
        <ele>594.7126465</ele>
        <time>2011-12-04T09:26:25Z</time>
      </trkpt>
      <trkpt lat="43.60226" lon="3.05764">
        <ele>589.90625</ele>
        <time>2011-12-04T09:26:37Z</time>
      </trkpt>
      <trkpt lat="43.60204" lon="3.0576">
        <ele>587.0219727</ele>
        <time>2011-12-04T09:26:48Z</time>
      </trkpt>
      <trkpt lat="43.60188" lon="3.05744">
        <ele>582.2155762</ele>
        <time>2011-12-04T09:26:55Z</time>
      </trkpt>
      <trkpt lat="43.60176" lon="3.05748">
        <ele>578.3703613</ele>
        <time>2011-12-04T09:27:00Z</time>
      </trkpt>
      <trkpt lat="43.6017" lon="3.05748">
        <ele>578.8510742</ele>
        <time>2011-12-04T09:27:03Z</time>
      </trkpt>
      <trkpt lat="43.60156" lon="3.05754">
        <ele>574.0444336</ele>
        <time>2011-12-04T09:27:10Z</time>
      </trkpt>
      <trkpt lat="43.60143" lon="3.0578">
        <ele>567.7956543</ele>
        <time>2011-12-04T09:27:49Z</time>
      </trkpt>
      <trkpt lat="43.60133" lon="3.05786">
        <ele>564.4311523</ele>
        <time>2011-12-04T09:27:55Z</time>
      </trkpt>
      <trkpt lat="43.60131" lon="3.05798">
        <ele>560.5859375</ele>
        <time>2011-12-04T09:28:29Z</time>
      </trkpt>
      <trkpt lat="43.6013" lon="3.05798">
        <ele>560.5859375</ele>
        <time>2011-12-04T09:28:30Z</time>
      </trkpt>
      <trkpt lat="43.60119" lon="3.05812">
        <ele>555.7792969</ele>
        <time>2011-12-04T09:28:41Z</time>
      </trkpt>
      <trkpt lat="43.60118" lon="3.05813">
        <ele>555.7792969</ele>
        <time>2011-12-04T09:28:42Z</time>
      </trkpt>
      <trkpt lat="43.60107" lon="3.05824">
        <ele>552.4145508</ele>
        <time>2011-12-04T09:28:46Z</time>
      </trkpt>
      <trkpt lat="43.60089" lon="3.05821">
        <ele>547.6081543</ele>
        <time>2011-12-04T09:28:56Z</time>
      </trkpt>
      <trkpt lat="43.60086" lon="3.05825">
        <ele>546.6468506</ele>
        <time>2011-12-04T09:28:58Z</time>
      </trkpt>
      <trkpt lat="43.60077" lon="3.05835">
        <ele>543.7628174</ele>
        <time>2011-12-04T09:29:02Z</time>
      </trkpt>
      <trkpt lat="43.60064" lon="3.05839">
        <ele>540.3983154</ele>
        <time>2011-12-04T09:29:04Z</time>
      </trkpt>
      <trkpt lat="43.60061" lon="3.0584">
        <ele>540.3983154</ele>
        <time>2011-12-04T09:29:05Z</time>
      </trkpt>
      <trkpt lat="43.60044" lon="3.05842">
        <ele>536.0723877</ele>
        <time>2011-12-04T09:29:12Z</time>
      </trkpt>
      <trkpt lat="43.60013" lon="3.05837">
        <ele>530.7851563</ele>
        <time>2011-12-04T09:29:24Z</time>
      </trkpt>
      <trkpt lat="43.60007" lon="3.05846">
        <ele>529.3431396</ele>
        <time>2011-12-04T09:29:29Z</time>
      </trkpt>
      <trkpt lat="43.60002" lon="3.05854">
        <ele>528.3818359</ele>
        <time>2011-12-04T09:29:38Z</time>
      </trkpt>
      <trkpt lat="43.59985" lon="3.05876">
        <ele>525.4978027</ele>
        <time>2011-12-04T09:29:49Z</time>
      </trkpt>
      <trkpt lat="43.59984" lon="3.05882">
        <ele>524.536499</ele>
        <time>2011-12-04T09:30:28Z</time>
      </trkpt>
      <trkpt lat="43.59938" lon="3.05929">
        <ele>519.2492676</ele>
        <time>2011-12-04T09:30:38Z</time>
      </trkpt>
      <trkpt lat="43.59933" lon="3.05935">
        <ele>515.8846436</ele>
        <time>2011-12-04T09:30:39Z</time>
      </trkpt>
      <trkpt lat="43.5991" lon="3.05942">
        <ele>511.0780029</ele>
        <time>2011-12-04T09:30:44Z</time>
      </trkpt>
      <trkpt lat="43.59899" lon="3.05903">
        <ele>508.1940918</ele>
        <time>2011-12-04T09:30:56Z</time>
      </trkpt>
      <trkpt lat="43.59897" lon="3.05902">
        <ele>507.713501</ele>
        <time>2011-12-04T09:31:18Z</time>
      </trkpt>
      <trkpt lat="43.59895" lon="3.05918">
        <ele>507.2327881</ele>
        <time>2011-12-04T09:31:25Z</time>
      </trkpt>
      <trkpt lat="43.59893" lon="3.05937">
        <ele>506.7520752</ele>
        <time>2011-12-04T09:31:30Z</time>
      </trkpt>
      <trkpt lat="43.59888" lon="3.0598">
        <ele>503.3874512</ele>
        <time>2011-12-04T09:31:38Z</time>
      </trkpt>
      <trkpt lat="43.59884" lon="3.05982">
        <ele>501.9455566</ele>
        <time>2011-12-04T09:31:41Z</time>
      </trkpt>
      <trkpt lat="43.59878" lon="3.05985">
        <ele>497.6196289</ele>
        <time>2011-12-04T09:31:44Z</time>
      </trkpt>
      <trkpt lat="43.59876" lon="3.05987">
        <ele>497.6196289</ele>
        <time>2011-12-04T09:31:45Z</time>
      </trkpt>
      <trkpt lat="43.59871" lon="3.06002">
        <ele>494.7355957</ele>
        <time>2011-12-04T09:31:49Z</time>
      </trkpt>
      <trkpt lat="43.59873" lon="3.06021">
        <ele>491.3709717</ele>
        <time>2011-12-04T09:32:07Z</time>
      </trkpt>
      <trkpt lat="43.59876" lon="3.06025">
        <ele>491.3709717</ele>
        <time>2011-12-04T09:32:27Z</time>
      </trkpt>
      <trkpt lat="43.59867" lon="3.06048">
        <ele>488.0064697</ele>
        <time>2011-12-04T09:33:12Z</time>
      </trkpt>
      <trkpt lat="43.59863" lon="3.06066">
        <ele>485.1224365</ele>
        <time>2011-12-04T09:33:17Z</time>
      </trkpt>
      <trkpt lat="43.59854" lon="3.06097">
        <ele>479.3544922</ele>
        <time>2011-12-04T09:33:22Z</time>
      </trkpt>
      <trkpt lat="43.59854" lon="3.06126">
        <ele>475.0286865</ele>
        <time>2011-12-04T09:33:29Z</time>
      </trkpt>
      <trkpt lat="43.59854" lon="3.06128">
        <ele>475.0286865</ele>
        <time>2011-12-04T09:33:44Z</time>
      </trkpt>
      <trkpt lat="43.59811" lon="3.06137">
        <ele>470.7026367</ele>
        <time>2011-12-04T09:33:55Z</time>
      </trkpt>
      <trkpt lat="43.59813" lon="3.06185">
        <ele>466.8574219</ele>
        <time>2011-12-04T09:34:03Z</time>
      </trkpt>
      <trkpt lat="43.59819" lon="3.06204">
        <ele>463.012085</ele>
        <time>2011-12-04T09:34:06Z</time>
      </trkpt>
      <trkpt lat="43.59827" lon="3.06228">
        <ele>459.647583</ele>
        <time>2011-12-04T09:34:10Z</time>
      </trkpt>
      <trkpt lat="43.59832" lon="3.06239">
        <ele>455.3215332</ele>
        <time>2011-12-04T09:34:12Z</time>
      </trkpt>
      <trkpt lat="43.59834" lon="3.06244">
        <ele>455.3215332</ele>
        <time>2011-12-04T09:34:13Z</time>
      </trkpt>
      <trkpt lat="43.59847" lon="3.06255">
        <ele>451.9570313</ele>
        <time>2011-12-04T09:34:17Z</time>
      </trkpt>
      <trkpt lat="43.59862" lon="3.06252">
        <ele>449.072998</ele>
        <time>2011-12-04T09:34:20Z</time>
      </trkpt>
      <trkpt lat="43.59879" lon="3.06259">
        <ele>445.2276611</ele>
        <time>2011-12-04T09:34:24Z</time>
      </trkpt>
      <trkpt lat="43.59888" lon="3.06264">
        <ele>441.3824463</ele>
        <time>2011-12-04T09:34:26Z</time>
      </trkpt>
      <trkpt lat="43.59904" lon="3.0628">
        <ele>437.5371094</ele>
        <time>2011-12-04T09:34:30Z</time>
      </trkpt>
      <trkpt lat="43.59913" lon="3.06296">
        <ele>434.1726074</ele>
        <time>2011-12-04T09:34:33Z</time>
      </trkpt>
      <trkpt lat="43.59914" lon="3.06301">
        <ele>434.1726074</ele>
        <time>2011-12-04T09:34:34Z</time>
      </trkpt>
      <trkpt lat="43.59912" lon="3.06319">
        <ele>429.8465576</ele>
        <time>2011-12-04T09:34:38Z</time>
      </trkpt>
      <trkpt lat="43.59913" lon="3.06345">
        <ele>425.520752</ele>
        <time>2011-12-04T09:34:43Z</time>
      </trkpt>
      <trkpt lat="43.59909" lon="3.06362">
        <ele>422.1560059</ele>
        <time>2011-12-04T09:34:46Z</time>
      </trkpt>
      <trkpt lat="43.59887" lon="3.06399">
        <ele>416.3881836</ele>
        <time>2011-12-04T09:34:54Z</time>
      </trkpt>
      <trkpt lat="43.59903" lon="3.06462">
        <ele>412.5428467</ele>
        <time>2011-12-04T09:35:03Z</time>
      </trkpt>
      <trkpt lat="43.59915" lon="3.0648">
        <ele>412.5428467</ele>
        <time>2011-12-04T09:35:08Z</time>
      </trkpt>
      <trkpt lat="43.5994" lon="3.06489">
        <ele>412.0622559</ele>
        <time>2011-12-04T09:35:24Z</time>
      </trkpt>
      <trkpt lat="43.59946" lon="3.0649">
        <ele>411.581665</ele>
        <time>2011-12-04T09:35:31Z</time>
      </trkpt>
      <trkpt lat="43.59926" lon="3.06494">
        <ele>411.1009521</ele>
        <time>2011-12-04T09:35:47Z</time>
      </trkpt>
      <trkpt lat="43.59902" lon="3.06543">
        <ele>406.7749023</ele>
        <time>2011-12-04T09:35:54Z</time>
      </trkpt>
      <trkpt lat="43.59898" lon="3.06552">
        <ele>406.7749023</ele>
        <time>2011-12-04T09:35:55Z</time>
      </trkpt>
      <trkpt lat="43.59881" lon="3.06586">
        <ele>403.4104004</ele>
        <time>2011-12-04T09:35:59Z</time>
      </trkpt>
      <trkpt lat="43.59881" lon="3.06602">
        <ele>401.0070801</ele>
        <time>2011-12-04T09:36:13Z</time>
      </trkpt>
      <trkpt lat="43.59882" lon="3.06602">
        <ele>400.0458984</ele>
        <time>2011-12-04T09:36:31Z</time>
      </trkpt>
      <trkpt lat="43.59898" lon="3.06612">
        <ele>395.7198486</ele>
        <time>2011-12-04T09:36:43Z</time>
      </trkpt>
      <trkpt lat="43.59898" lon="3.06621">
        <ele>391.3937988</ele>
        <time>2011-12-04T09:36:46Z</time>
      </trkpt>
      <trkpt lat="43.59885" lon="3.06653">
        <ele>392.3553467</ele>
        <time>2011-12-04T09:36:57Z</time>
      </trkpt>
      <trkpt lat="43.59883" lon="3.06662">
        <ele>390.913208</ele>
        <time>2011-12-04T09:36:59Z</time>
      </trkpt>
      <trkpt lat="43.59881" lon="3.06682">
        <ele>386.5874023</ele>
        <time>2011-12-04T09:37:02Z</time>
      </trkpt>
      <trkpt lat="43.59879" lon="3.067">
        <ele>382.7420654</ele>
        <time>2011-12-04T09:37:08Z</time>
      </trkpt>
      <trkpt lat="43.59878" lon="3.06703">
        <ele>382.7420654</ele>
        <time>2011-12-04T09:37:09Z</time>
      </trkpt>
      <trkpt lat="43.59867" lon="3.06724">
        <ele>381.7806396</ele>
        <time>2011-12-04T09:37:14Z</time>
      </trkpt>
      <trkpt lat="43.59881" lon="3.06746">
        <ele>376.9742432</ele>
        <time>2011-12-04T09:37:20Z</time>
      </trkpt>
      <trkpt lat="43.59883" lon="3.06748">
        <ele>374.0900879</ele>
        <time>2011-12-04T09:37:21Z</time>
      </trkpt>
      <trkpt lat="43.59886" lon="3.06751">
        <ele>371.6868896</ele>
        <time>2011-12-04T09:37:23Z</time>
      </trkpt>
      <trkpt lat="43.599" lon="3.06755">
        <ele>365.4383545</ele>
        <time>2011-12-04T09:37:30Z</time>
      </trkpt>
      <trkpt lat="43.59907" lon="3.06754">
        <ele>361.5931396</ele>
        <time>2011-12-04T09:37:35Z</time>
      </trkpt>
      <trkpt lat="43.59908" lon="3.06754">
        <ele>361.5931396</ele>
        <time>2011-12-04T09:37:36Z</time>
      </trkpt>
      <trkpt lat="43.59918" lon="3.06762">
        <ele>358.2283936</ele>
        <time>2011-12-04T09:37:41Z</time>
      </trkpt>
      <trkpt lat="43.59927" lon="3.06781">
        <ele>355.8251953</ele>
        <time>2011-12-04T09:37:48Z</time>
      </trkpt>
      <trkpt lat="43.59937" lon="3.06782">
        <ele>351.4991455</ele>
        <time>2011-12-04T09:37:53Z</time>
      </trkpt>
      <trkpt lat="43.59941" lon="3.06782">
        <ele>349.5765381</ele>
        <time>2011-12-04T09:37:55Z</time>
      </trkpt>
      <trkpt lat="43.59953" lon="3.06793">
        <ele>344.7700195</ele>
        <time>2011-12-04T09:38:00Z</time>
      </trkpt>
      <trkpt lat="43.59956" lon="3.06796">
        <ele>339.0020752</ele>
        <time>2011-12-04T09:38:07Z</time>
      </trkpt>
      <trkpt lat="43.59957" lon="3.06802">
        <ele>338.5214844</ele>
        <time>2011-12-04T09:38:15Z</time>
      </trkpt>
      <trkpt lat="43.59952" lon="3.06828">
        <ele>332.75354</ele>
        <time>2011-12-04T09:38:31Z</time>
      </trkpt>
      <trkpt lat="43.59953" lon="3.06832">
        <ele>332.75354</ele>
        <time>2011-12-04T09:38:32Z</time>
      </trkpt>
      <trkpt lat="43.59959" lon="3.0684">
        <ele>327.4661865</ele>
        <time>2011-12-04T09:38:36Z</time>
      </trkpt>
      <trkpt lat="43.59961" lon="3.06844">
        <ele>327.4661865</ele>
        <time>2011-12-04T09:38:37Z</time>
      </trkpt>
      <trkpt lat="43.59962" lon="3.06846">
        <ele>326.0241699</ele>
        <time>2011-12-04T09:38:39Z</time>
      </trkpt>
      <trkpt lat="43.59966" lon="3.06868">
        <ele>322.1789551</ele>
        <time>2011-12-04T09:38:54Z</time>
      </trkpt>
      <trkpt lat="43.59961" lon="3.0691">
        <ele>318.8143311</ele>
        <time>2011-12-04T09:38:59Z</time>
      </trkpt>
      <trkpt lat="43.59962" lon="3.06919">
        <ele>318.8143311</ele>
        <time>2011-12-04T09:39:00Z</time>
      </trkpt>
      <trkpt lat="43.59962" lon="3.06928">
        <ele>316.8917236</ele>
        <time>2011-12-04T09:39:02Z</time>
      </trkpt>
      <trkpt lat="43.59961" lon="3.06965">
        <ele>311.6044922</ele>
        <time>2011-12-04T09:39:21Z</time>
      </trkpt>
      <trkpt lat="43.59966" lon="3.06965">
        <ele>306.3172607</ele>
        <time>2011-12-04T09:40:00Z</time>
      </trkpt>
      <trkpt lat="43.59966" lon="3.06965">
        <ele>305.8366699</ele>
        <time>2011-12-04T09:40:01Z</time>
      </trkpt>
      <trkpt lat="43.59967" lon="3.06979">
        <ele>304.8752441</ele>
        <time>2011-12-04T09:40:27Z</time>
      </trkpt>
      <trkpt lat="43.59962" lon="3.06985">
        <ele>305.355957</ele>
        <time>2011-12-04T09:40:38Z</time>
      </trkpt>
      <trkpt lat="43.59946" lon="3.0703">
        <ele>302.9525146</ele>
        <time>2011-12-04T09:40:51Z</time>
      </trkpt>
      <trkpt lat="43.59939" lon="3.07041">
        <ele>299.5880127</ele>
        <time>2011-12-04T09:40:55Z</time>
      </trkpt>
      <trkpt lat="43.59938" lon="3.07042">
        <ele>299.5880127</ele>
        <time>2011-12-04T09:40:56Z</time>
      </trkpt>
      <trkpt lat="43.59925" lon="3.07059">
        <ele>299.5880127</ele>
        <time>2011-12-04T09:41:07Z</time>
      </trkpt>
      <trkpt lat="43.59899" lon="3.07091">
        <ele>297.1846924</ele>
        <time>2011-12-04T09:41:17Z</time>
      </trkpt>
      <trkpt lat="43.59858" lon="3.07114">
        <ele>294.3007813</ele>
        <time>2011-12-04T09:41:30Z</time>
      </trkpt>
      <trkpt lat="43.59844" lon="3.07124">
        <ele>297.6654053</ele>
        <time>2011-12-04T09:41:41Z</time>
      </trkpt>
      <trkpt lat="43.59791" lon="3.0718">
        <ele>299.1072998</ele>
        <time>2011-12-04T09:42:09Z</time>
      </trkpt>
      <trkpt lat="43.59733" lon="3.07237">
        <ele>298.1461182</ele>
        <time>2011-12-04T09:42:40Z</time>
      </trkpt>
      <trkpt lat="43.59677" lon="3.07299">
        <ele>297.6654053</ele>
        <time>2011-12-04T09:43:08Z</time>
      </trkpt>
      <trkpt lat="43.59672" lon="3.07308">
        <ele>297.6654053</ele>
        <time>2011-12-04T09:43:56Z</time>
      </trkpt>
      <trkpt lat="43.59633" lon="3.07321">
        <ele>297.6654053</ele>
        <time>2011-12-04T09:44:58Z</time>
      </trkpt>
      <trkpt lat="43.59589" lon="3.07398">
        <ele>300.0687256</ele>
        <time>2011-12-04T09:45:23Z</time>
      </trkpt>
      <trkpt lat="43.59546" lon="3.0739">
        <ele>298.626709</ele>
        <time>2011-12-04T09:45:47Z</time>
      </trkpt>
      <trkpt lat="43.5953" lon="3.07399">
        <ele>294.7813721</ele>
        <time>2011-12-04T09:45:52Z</time>
      </trkpt>
      <trkpt lat="43.59508" lon="3.07416">
        <ele>290.4555664</ele>
        <time>2011-12-04T09:46:03Z</time>
      </trkpt>
      <trkpt lat="43.59507" lon="3.0742">
        <ele>288.532959</ele>
        <time>2011-12-04T09:46:05Z</time>
      </trkpt>
      <trkpt lat="43.59501" lon="3.07432">
        <ele>283.7261963</ele>
        <time>2011-12-04T09:46:13Z</time>
      </trkpt>
      <trkpt lat="43.59499" lon="3.07438">
        <ele>280.3616943</ele>
        <time>2011-12-04T09:46:18Z</time>
      </trkpt>
      <trkpt lat="43.59497" lon="3.07449">
        <ele>276.0356445</ele>
        <time>2011-12-04T09:46:42Z</time>
      </trkpt>
      <trkpt lat="43.59494" lon="3.07462">
        <ele>271.7097168</ele>
        <time>2011-12-04T09:46:47Z</time>
      </trkpt>
      <trkpt lat="43.59482" lon="3.07475">
        <ele>266.9031982</ele>
        <time>2011-12-04T09:46:54Z</time>
      </trkpt>
      <trkpt lat="43.59474" lon="3.07479">
        <ele>265.4613037</ele>
        <time>2011-12-04T09:46:57Z</time>
      </trkpt>
      <trkpt lat="43.59472" lon="3.07491">
        <ele>261.1352539</ele>
        <time>2011-12-04T09:47:00Z</time>
      </trkpt>
      <trkpt lat="43.59463" lon="3.07508">
        <ele>257.770752</ele>
        <time>2011-12-04T09:47:09Z</time>
      </trkpt>
      <trkpt lat="43.59491" lon="3.07561">
        <ele>257.770752</ele>
        <time>2011-12-04T09:47:32Z</time>
      </trkpt>
      <trkpt lat="43.59491" lon="3.0761">
        <ele>262.0965576</ele>
        <time>2011-12-04T09:47:48Z</time>
      </trkpt>
      <trkpt lat="43.59503" lon="3.07659">
        <ele>260.654541</ele>
        <time>2011-12-04T09:48:01Z</time>
      </trkpt>
      <trkpt lat="43.59504" lon="3.07693">
        <ele>260.1739502</ele>
        <time>2011-12-04T09:50:04Z</time>
      </trkpt>
      <trkpt lat="43.59493" lon="3.07718">
        <ele>261.1352539</ele>
        <time>2011-12-04T09:50:14Z</time>
      </trkpt>
      <trkpt lat="43.59466" lon="3.07742">
        <ele>266.4224854</ele>
        <time>2011-12-04T09:50:35Z</time>
      </trkpt>
      <trkpt lat="43.59458" lon="3.07746">
        <ele>267.864502</ele>
        <time>2011-12-04T09:50:48Z</time>
      </trkpt>
      <trkpt lat="43.59457" lon="3.07777">
        <ele>261.6159668</ele>
        <time>2011-12-04T09:50:58Z</time>
      </trkpt>
      <trkpt lat="43.59455" lon="3.0778">
        <ele>260.654541</ele>
        <time>2011-12-04T09:51:01Z</time>
      </trkpt>
      <trkpt lat="43.59432" lon="3.07808">
        <ele>254.8865967</ele>
        <time>2011-12-04T09:51:13Z</time>
      </trkpt>
      <trkpt lat="43.59431" lon="3.07812">
        <ele>254.8865967</ele>
        <time>2011-12-04T09:51:14Z</time>
      </trkpt>
      <trkpt lat="43.59428" lon="3.07843">
        <ele>247.1960449</ele>
        <time>2011-12-04T09:51:20Z</time>
      </trkpt>
      <trkpt lat="43.59427" lon="3.07847">
        <ele>247.1960449</ele>
        <time>2011-12-04T09:51:21Z</time>
      </trkpt>
      <trkpt lat="43.59432" lon="3.07886">
        <ele>240.9476318</ele>
        <time>2011-12-04T09:51:36Z</time>
      </trkpt>
      <trkpt lat="43.59442" lon="3.07898">
        <ele>234.6990967</ele>
        <time>2011-12-04T09:51:45Z</time>
      </trkpt>
      <trkpt lat="43.59443" lon="3.079">
        <ele>234.6990967</ele>
        <time>2011-12-04T09:53:11Z</time>
      </trkpt>
      <trkpt lat="43.59464" lon="3.07916">
        <ele>230.8537598</ele>
        <time>2011-12-04T09:53:19Z</time>
      </trkpt>
      <trkpt lat="43.59469" lon="3.07934">
        <ele>229.4117432</ele>
        <time>2011-12-04T09:53:21Z</time>
      </trkpt>
      <trkpt lat="43.59479" lon="3.07968">
        <ele>223.163208</ele>
        <time>2011-12-04T09:53:26Z</time>
      </trkpt>
      <trkpt lat="43.5948" lon="3.0799">
        <ele>219.798584</ele>
        <time>2011-12-04T09:53:30Z</time>
      </trkpt>
      <trkpt lat="43.59478" lon="3.08009">
        <ele>216.9146729</ele>
        <time>2011-12-04T09:53:34Z</time>
      </trkpt>
      <trkpt lat="43.5945" lon="3.0807">
        <ele>212.588623</ele>
        <time>2011-12-04T09:53:43Z</time>
      </trkpt>
      <trkpt lat="43.59443" lon="3.0809">
        <ele>209.704834</ele>
        <time>2011-12-04T09:53:47Z</time>
      </trkpt>
      <trkpt lat="43.59434" lon="3.08092">
        <ele>209.704834</ele>
        <time>2011-12-04T09:53:49Z</time>
      </trkpt>
      <trkpt lat="43.59416" lon="3.08091">
        <ele>208.7434082</ele>
        <time>2011-12-04T09:53:53Z</time>
      </trkpt>
      <trkpt lat="43.59401" lon="3.0809">
        <ele>208.7434082</ele>
        <time>2011-12-04T09:53:56Z</time>
      </trkpt>
      <trkpt lat="43.59388" lon="3.08133">
        <ele>204.8980713</ele>
        <time>2011-12-04T09:54:03Z</time>
      </trkpt>
      <trkpt lat="43.59348" lon="3.08135">
        <ele>202.0142822</ele>
        <time>2011-12-04T09:54:12Z</time>
      </trkpt>
      <trkpt lat="43.59334" lon="3.08114">
        <ele>202.494873</ele>
        <time>2011-12-04T09:54:18Z</time>
      </trkpt>
      <trkpt lat="43.59314" lon="3.08081">
        <ele>205.8594971</ele>
        <time>2011-12-04T09:54:29Z</time>
      </trkpt>
      <trkpt lat="43.59283" lon="3.08091">
        <ele>208.7434082</ele>
        <time>2011-12-04T09:54:41Z</time>
      </trkpt>
      <trkpt lat="43.59251" lon="3.08115">
        <ele>211.6274414</ele>
        <time>2011-12-04T09:55:00Z</time>
      </trkpt>
      <trkpt lat="43.59196" lon="3.08142">
        <ele>218.3565674</ele>
        <time>2011-12-04T09:55:34Z</time>
      </trkpt>
      <trkpt lat="43.5914" lon="3.08154">
        <ele>224.1245117</ele>
        <time>2011-12-04T09:56:10Z</time>
      </trkpt>
      <trkpt lat="43.59092" lon="3.08169">
        <ele>228.4504395</ele>
        <time>2011-12-04T09:56:39Z</time>
      </trkpt>
      <trkpt lat="43.59025" lon="3.0813">
        <ele>231.8149414</ele>
        <time>2011-12-04T09:57:16Z</time>
      </trkpt>
      <trkpt lat="43.59002" lon="3.08125">
        <ele>231.8149414</ele>
        <time>2011-12-04T09:57:23Z</time>
      </trkpt>
      <trkpt lat="43.58986" lon="3.081">
        <ele>229.4117432</ele>
        <time>2011-12-04T09:58:01Z</time>
      </trkpt>
      <trkpt lat="43.58989" lon="3.08089">
        <ele>230.8537598</ele>
        <time>2011-12-04T09:58:06Z</time>
      </trkpt>
      <trkpt lat="43.59001" lon="3.08045">
        <ele>234.2183838</ele>
        <time>2011-12-04T09:58:21Z</time>
      </trkpt>
      <trkpt lat="43.59006" lon="3.08012">
        <ele>237.5828857</ele>
        <time>2011-12-04T09:58:33Z</time>
      </trkpt>
      <trkpt lat="43.58991" lon="3.07896">
        <ele>243.3508301</ele>
        <time>2011-12-04T09:59:14Z</time>
      </trkpt>
      <trkpt lat="43.58996" lon="3.0785">
        <ele>244.7928467</ele>
        <time>2011-12-04T09:59:29Z</time>
      </trkpt>
      <trkpt lat="43.58951" lon="3.07788">
        <ele>242.3896484</ele>
        <time>2011-12-04T09:59:45Z</time>
      </trkpt>
      <trkpt lat="43.58946" lon="3.07783">
        <ele>242.3896484</ele>
        <time>2011-12-04T09:59:46Z</time>
      </trkpt>
      <trkpt lat="43.58936" lon="3.07744">
        <ele>243.3508301</ele>
        <time>2011-12-04T09:59:53Z</time>
      </trkpt>
      <trkpt lat="43.58933" lon="3.07681">
        <ele>249.1187744</ele>
        <time>2011-12-04T10:00:21Z</time>
      </trkpt>
      <trkpt lat="43.58939" lon="3.07632">
        <ele>253.925415</ele>
        <time>2011-12-04T10:01:02Z</time>
      </trkpt>
      <trkpt lat="43.58941" lon="3.07617">
        <ele>253.925415</ele>
        <time>2011-12-04T10:01:52Z</time>
      </trkpt>
      <trkpt lat="43.58955" lon="3.07586">
        <ele>250.560791</ele>
        <time>2011-12-04T10:01:57Z</time>
      </trkpt>
      <trkpt lat="43.58931" lon="3.07578">
        <ele>247.1960449</ele>
        <time>2011-12-04T10:02:03Z</time>
      </trkpt>
      <trkpt lat="43.58906" lon="3.07581">
        <ele>243.3508301</ele>
        <time>2011-12-04T10:02:07Z</time>
      </trkpt>
      <trkpt lat="43.58902" lon="3.07581">
        <ele>240.9476318</ele>
        <time>2011-12-04T10:02:08Z</time>
      </trkpt>
      <trkpt lat="43.58926" lon="3.07542">
        <ele>237.1022949</ele>
        <time>2011-12-04T10:02:16Z</time>
      </trkpt>
      <trkpt lat="43.58913" lon="3.07532">
        <ele>232.2957764</ele>
        <time>2011-12-04T10:02:21Z</time>
      </trkpt>
      <trkpt lat="43.58886" lon="3.07532">
        <ele>228.9311523</ele>
        <time>2011-12-04T10:02:26Z</time>
      </trkpt>
      <trkpt lat="43.58859" lon="3.07543">
        <ele>224.6052246</ele>
        <time>2011-12-04T10:02:32Z</time>
      </trkpt>
      <trkpt lat="43.58851" lon="3.07595">
        <ele>219.798584</ele>
        <time>2011-12-04T10:02:42Z</time>
      </trkpt>
      <trkpt lat="43.58844" lon="3.0762">
        <ele>216.43396</ele>
        <time>2011-12-04T10:02:46Z</time>
      </trkpt>
      <trkpt lat="43.5884" lon="3.07649">
        <ele>212.1080322</ele>
        <time>2011-12-04T10:03:05Z</time>
      </trkpt>
      <trkpt lat="43.58858" lon="3.07678">
        <ele>206.8206787</ele>
        <time>2011-12-04T10:03:11Z</time>
      </trkpt>
      <trkpt lat="43.58839" lon="3.07707">
        <ele>202.9754639</ele>
        <time>2011-12-04T10:03:17Z</time>
      </trkpt>
      <trkpt lat="43.58822" lon="3.07727">
        <ele>199.130127</ele>
        <time>2011-12-04T10:03:23Z</time>
      </trkpt>
      <trkpt lat="43.58822" lon="3.07723">
        <ele>199.6108398</ele>
        <time>2011-12-04T10:03:24Z</time>
      </trkpt>
      <trkpt lat="43.58807" lon="3.07547">
        <ele>198.6495361</ele>
        <time>2011-12-04T10:03:56Z</time>
      </trkpt>
      <trkpt lat="43.58791" lon="3.07467">
        <ele>198.6495361</ele>
        <time>2011-12-04T10:04:09Z</time>
      </trkpt>
      <trkpt lat="43.5878" lon="3.07422">
        <ele>198.6495361</ele>
        <time>2011-12-04T10:04:18Z</time>
      </trkpt>
      <trkpt lat="43.5878" lon="3.07388">
        <ele>198.1689453</ele>
        <time>2011-12-04T10:04:27Z</time>
      </trkpt>
      <trkpt lat="43.58756" lon="3.07333">
        <ele>201.5335693</ele>
        <time>2011-12-04T10:04:39Z</time>
      </trkpt>
      <trkpt lat="43.58754" lon="3.07329">
        <ele>201.5335693</ele>
        <time>2011-12-04T10:04:40Z</time>
      </trkpt>
      <trkpt lat="43.58718" lon="3.07246">
        <ele>203.9368896</ele>
        <time>2011-12-04T10:04:57Z</time>
      </trkpt>
      <trkpt lat="43.58695" lon="3.07216">
        <ele>207.7821045</ele>
        <time>2011-12-04T10:05:09Z</time>
      </trkpt>
      <trkpt lat="43.58672" lon="3.07182">
        <ele>208.7434082</ele>
        <time>2011-12-04T10:05:19Z</time>
      </trkpt>
      <trkpt lat="43.5865" lon="3.07134">
        <ele>213.5500488</ele>
        <time>2011-12-04T10:05:43Z</time>
      </trkpt>
      <trkpt lat="43.58636" lon="3.07122">
        <ele>212.588623</ele>
        <time>2011-12-04T10:06:00Z</time>
      </trkpt>
      <trkpt lat="43.586" lon="3.07071">
        <ele>206.3400879</ele>
        <time>2011-12-04T10:06:07Z</time>
      </trkpt>
      <trkpt lat="43.58594" lon="3.07063">
        <ele>206.3400879</ele>
        <time>2011-12-04T10:06:08Z</time>
      </trkpt>
      <trkpt lat="43.58589" lon="3.07055">
        <ele>204.8980713</ele>
        <time>2011-12-04T10:06:09Z</time>
      </trkpt>
      <trkpt lat="43.58565" lon="3.07009">
        <ele>202.0142822</ele>
        <time>2011-12-04T10:06:14Z</time>
      </trkpt>
      <trkpt lat="43.58533" lon="3.06944">
        <ele>202.494873</ele>
        <time>2011-12-04T10:06:24Z</time>
      </trkpt>
      <trkpt lat="43.58463" lon="3.06795">
        <ele>201.0528564</ele>
        <time>2011-12-04T10:06:52Z</time>
      </trkpt>
      <trkpt lat="43.58457" lon="3.06785">
        <ele>201.0528564</ele>
        <time>2011-12-04T10:06:54Z</time>
      </trkpt>
      <trkpt lat="43.58406" lon="3.06683">
        <ele>198.6495361</ele>
        <time>2011-12-04T10:07:12Z</time>
      </trkpt>
      <trkpt lat="43.58394" lon="3.0665">
        <ele>195.2849121</ele>
        <time>2011-12-04T10:07:16Z</time>
      </trkpt>
      <trkpt lat="43.58367" lon="3.0661">
        <ele>191.9202881</ele>
        <time>2011-12-04T10:07:22Z</time>
      </trkpt>
      <trkpt lat="43.58343" lon="3.06581">
        <ele>194.8043213</ele>
        <time>2011-12-04T10:07:27Z</time>
      </trkpt>
      <trkpt lat="43.58261" lon="3.06474">
        <ele>196.2463379</ele>
        <time>2011-12-04T10:07:49Z</time>
      </trkpt>
      <trkpt lat="43.58191" lon="3.06435">
        <ele>197.6882324</ele>
        <time>2011-12-04T10:08:07Z</time>
      </trkpt>
      <trkpt lat="43.58085" lon="3.06321">
        <ele>196.7269287</ele>
        <time>2011-12-04T10:08:34Z</time>
      </trkpt>
      <trkpt lat="43.58062" lon="3.06286">
        <ele>194.3237305</ele>
        <time>2011-12-04T10:08:39Z</time>
      </trkpt>
      <trkpt lat="43.57991" lon="3.0625">
        <ele>188.0750732</ele>
        <time>2011-12-04T10:08:49Z</time>
      </trkpt>
      <trkpt lat="43.57949" lon="3.06262">
        <ele>186.1524658</ele>
        <time>2011-12-04T10:08:54Z</time>
      </trkpt>
      <trkpt lat="43.57921" lon="3.06269">
        <ele>182.7878418</ele>
        <time>2011-12-04T10:08:59Z</time>
      </trkpt>
      <trkpt lat="43.57917" lon="3.06269">
        <ele>182.3071289</ele>
        <time>2011-12-04T10:09:00Z</time>
      </trkpt>
      <trkpt lat="43.5791" lon="3.06239">
        <ele>181.3458252</ele>
        <time>2011-12-04T10:09:07Z</time>
      </trkpt>
      <trkpt lat="43.57893" lon="3.06215">
        <ele>180.3845215</ele>
        <time>2011-12-04T10:09:16Z</time>
      </trkpt>
    </trkseg>
  </trk>
</gpx>